Epps, Louisiana
Current Conditions -  °F | °C
As of 12:15 PM on Thursday 29 Jan 2015 (Local Time) from KBQP Reporting Station
Clear Clear  
Wind Chill: 71°   Ceiling: Unl
Heat Index: 71°   Visibility: 10mi
Dew Point: 51°   Wind: 9mph
Humidity: 50%   Direction: 270°W
Pressure: 30.17"   Gusts: 17mph
Location:  32.6°N, 91.48°W
Report Text: KBQP 291815Z AUTO 27008G15KT 10SM CLR 22/11 A3017 RMK AO2 T02150107
Loading
Personal Weather Stations






























Interactive Weather Map New forecast layout! Learn more

10-Day Weather Forecast

Advertisements
Track Severe Weather on mobile